Terminal Aerodrome Forecast
Issued by NWS

Home | Current Version | Previous Version | Text Only | Print | Product List | Glossary On
Versions: 1 2 3 4 5 6 7 8 9 10 11 12
000
FTUS42 TJSJ 020000 RRA
TAFJPS
TAF
TJPS 020021Z 0200/0224 05005KT P6SM FEW030
      TEMPO 0209/0212 VRB06G25KT -RA SCT025
     FM021200 07025G40KT P6SM VCTS SCT025CB BKN050
     FM021600 14025G35KT P6SM TSRA SCT020CB BKN040
     FM022100 09012KT P6SM SCT030 SCT050=

USA.gov is the U.S. government's official web portal to all federal, state and local government web resources and services.